Allemand, Louisiana
Current Conditions -  °F | °C
As of 9:47 AM on Friday 21 Nov 2014 (Local Time) from KHUM Reporting Station
Clear Clear  
Wind Chill: 63°   Ceiling: Unl
Heat Index: 63°   Visibility: 7mi
Dew Point: 52°   Wind: 14mph
Humidity: 68%   Direction: 100°E
Pressure: 30.3"   Gusts: NA
Location:  29.5867°N, 90.8252°W
Report Text: KHUM 211547Z 10012KT 7SM SKC 17/11 A3030 RMK RY12/30 CLOSED ATIS C VA/RY18 MS
Loading
Personal Weather Stations






























Interactive Weather Map New forecast layout! Learn more

10-Day Weather Forecast

Advertisements
Track Severe Weather on mobile